Badlands, SD

7:01 PM MDT on April 19, 2015 (GMT -0600)
RAWS | | Change Station
CLOSE
Current Station
Personal Weather Station
Location: Wall, SD
Elevation: 3080 ft
Nearby Weather Stations
Active Advisory: High Wind Advisory

Elev 3080 ft 43.88 °N, 102.24 °W | Updated 41 minutes ago

Overcast
Overcast
48 °F
Feels Like 40 °F
N
26
Wind Variable Wind from NNW
Gusts 39.0 mph

Today
High -- | Low -- °F
--% Chance of Precip.
Yesterday
High -- | Low -- °F
Precip. -- in
5:58 AM 7:35 PM
New Moon, 2% visible
Pressure 29.98 in
Visibility 10.0 miles
Clouds Scattered Clouds 7000 ft
Windchill 40 °F
Dew Point 22 °F
Humidity 35%
Rainfall in
Snow Depth Not available.
UV 0 out of 12
Pollen 9.50 out of 12
Air Quality Not available.
Flu Activity Sporadic
METAR KPHP 200055Z AUTO 35019G28KT 10SM SCT070 09/M06 A2996 RMK AO2 PK WND 35032/0030 SLP151 T00941056

More Conditions Fewer Conditions

Pressure 29.98 in
Visibility 10.0 miles
Clouds Scattered Clouds 7000 ft
Windchill 40 °F
Dew Point 22 °F
Humidity 35%
Rainfall in
Snow Depth Not available.
UV 0 out of 12
Pollen 9.50 out of 12
Air Quality Not available.
Flu Activity Sporadic
METAR KPHP 200055Z AUTO 35019G28KT 10SM SCT070 09/M06 A2996 RMK AO2 PK WND 35032/0030 SLP151 T00941056

More Conditions Fewer Conditions

10-Day Weather Forecast

Almanac

Astronomy

Apr. 19, 2015 Rise Set
Actual Time
Civil Twilight
Nautical Twilight
Astronomical Twilight
Moon
Length of Visible Light
Length of Day
Tomorrow will be .
, % of the Moon is Illuminated

Today's Extremes

State Highs State Lows

Community

WunderPhotos

Upload Photos

1,815,080 photos uploaded!

WunderBlogs® & News

Nearby

Air Quality

  Air Quality AQ Index Pollutant
Not available.

Snow Depth

Station Depth Elevation

Earthquake Activity

City Distance Mag. Time & Date
Minimum magnitude displayed is 2.5.

Coastal Water Temperatures

Place Temperature

Stations

Nearby Weather Stations

Station Location Temp. Windchill Dew Point Humidity Wind Precip. Elev Updated Type
                   
High Wind Advisory
Statement as of 6:58 PM MDT on April 19, 2015

... Wind Advisory will expire at 7 PM MDT /8 PM CDT/ this
evening...

Northwest winds will continue to diminish this evening. The Wind
Advisory will expire at 7 PM MDT... 8 PM CDT.